createdAt,value
2022-11-12T00:01:06.483Z,4.30
2022-11-12T00:03:34.365Z,4.40
2022-11-12T00:06:02.399Z,5.10
2022-11-12T00:08:30.348Z,4.90
2022-11-12T00:10:58.567Z,4.30
2022-11-12T00:13:26.336Z,4.70
2022-11-12T00:15:54.195Z,4.30
2022-11-12T00:18:22.167Z,4.20
2022-11-12T00:20:50.030Z,4.60
2022-11-12T00:23:18.229Z,4.50
2022-11-12T00:25:46.175Z,4.60
2022-11-12T00:28:13.934Z,3.90
2022-11-12T00:30:41.824Z,4.40
2022-11-12T00:33:09.872Z,3.90
2022-11-12T00:35:37.634Z,4.50
2022-11-12T00:38:05.506Z,4.10
2022-11-12T00:40:35.944Z,4.40
2022-11-12T00:43:04.107Z,4.50
2022-11-12T00:45:31.959Z,4.60
2022-11-12T00:47:59.932Z,4.50
2022-11-12T00:50:27.701Z,4.50
2022-11-12T00:52:55.568Z,4.60
2022-11-12T00:55:23.435Z,4.40
2022-11-12T00:57:51.398Z,4.30
2022-11-12T01:00:19.884Z,4.70
2022-11-12T01:02:51.365Z,4.40
2022-11-12T01:05:20.669Z,4.50
2022-11-12T01:07:55.667Z,4.30
2022-11-12T01:10:24.141Z,3.80
2022-11-12T01:12:51.912Z,4.30
2022-11-12T01:15:19.673Z,4.00
2022-11-12T01:17:47.607Z,4.00
2022-11-12T01:20:15.707Z,4.30
2022-11-12T01:22:43.461Z,4.50
2022-11-12T01:25:11.576Z,3.90
2022-11-12T01:27:40.028Z,4.30
2022-11-12T01:30:08.197Z,4.20
2022-11-12T01:32:37.330Z,4.00
2022-11-12T01:35:05.362Z,4.70
2022-11-12T01:37:33.023Z,4.40
2022-11-12T01:40:00.794Z,4.90
2022-11-12T01:42:30.088Z,4.70
2022-11-12T01:44:57.837Z,4.30
2022-11-12T01:47:27.148Z,4.70
2022-11-12T01:50:13.646Z,4.80
2022-11-12T01:52:50.288Z,4.60
2022-11-12T01:55:25.561Z,4.50
2022-11-12T01:57:55.483Z,4.60
2022-11-12T02:00:23.224Z,4.60
2022-11-12T02:02:55.666Z,5.00
2022-11-12T02:05:24.192Z,4.00
2022-11-12T02:07:52.467Z,4.70
2022-11-12T02:10:21.515Z,4.80
2022-11-12T02:13:09.283Z,4.40
2022-11-12T02:15:37.773Z,4.70
2022-11-12T02:18:05.822Z,5.00
2022-11-12T02:20:34.790Z,4.70
2022-11-12T02:23:02.909Z,4.60
2022-11-12T02:25:30.577Z,4.60
2022-11-12T02:27:58.765Z,5.00
2022-11-12T02:30:44.362Z,4.50
2022-11-12T02:33:12.597Z,4.60
2022-11-12T02:35:40.569Z,4.40
2022-11-12T02:38:08.478Z,4.50
2022-11-12T02:40:36.421Z,4.80
2022-11-12T02:43:04.183Z,4.90
2022-11-12T02:45:32.224Z,4.90
2022-11-12T02:48:00.038Z,5.70
2022-11-12T02:50:28.108Z,4.80
2022-11-12T02:52:55.937Z,4.90
2022-11-12T02:55:23.801Z,4.80
2022-11-12T02:57:51.415Z,5.00
2022-11-12T03:00:19.155Z,4.60
2022-11-12T03:02:59.338Z,4.30
2022-11-12T03:05:31.650Z,4.90
2022-11-12T03:08:00.601Z,4.40
2022-11-12T03:10:29.171Z,4.60
2022-11-12T03:12:57.703Z,4.40
2022-11-12T03:15:25.979Z,4.60
2022-11-12T03:17:53.801Z,5.10
2022-11-12T03:20:21.507Z,4.70
2022-11-12T03:23:03.712Z,4.90
2022-11-12T03:25:31.784Z,4.40
2022-11-12T03:27:59.546Z,4.90
2022-11-12T03:30:28.024Z,5.00
2022-11-12T03:32:55.888Z,4.80
2022-11-12T03:35:24.077Z,4.90
2022-11-12T03:37:51.929Z,4.80
2022-11-12T03:40:20.181Z,4.80
2022-11-12T03:42:48.789Z,4.70
2022-11-12T03:45:17.172Z,4.50
2022-11-12T03:47:46.093Z,4.50
2022-11-12T03:50:14.677Z,4.60
2022-11-12T03:52:47.240Z,4.70
2022-11-12T03:55:15.753Z,4.50
2022-11-12T03:57:43.458Z,4.60
2022-11-12T04:00:11.915Z,4.90
2022-11-12T04:02:39.544Z,5.10
2022-11-12T04:05:26.203Z,4.70
2022-11-12T04:08:19.280Z,5.40
2022-11-12T04:10:47.226Z,4.70
2022-11-12T04:13:30.553Z,4.40
2022-11-12T04:16:26.175Z,4.70
2022-11-12T04:19:14.213Z,5.00
2022-11-12T04:21:52.565Z,5.20
2022-11-12T04:24:39.265Z,5.20
2022-11-12T04:27:07.865Z,5.40
2022-11-12T04:29:54.521Z,6.90
2022-11-12T04:32:22.798Z,19.70
2022-11-12T04:34:50.586Z,8.40
2022-11-12T04:37:23.192Z,7.90
2022-11-12T04:39:52.234Z,5.70
2022-11-12T04:42:38.387Z,4.90
2022-11-12T04:45:07.567Z,5.50
2022-11-12T04:47:35.400Z,5.30
2022-11-12T04:50:05.148Z,7.90
2022-11-12T04:52:33.086Z,7.60
2022-11-12T04:55:00.929Z,7.70
2022-11-12T04:57:28.679Z,6.30
2022-11-12T04:59:57.378Z,6.10
2022-11-12T05:02:25.859Z,6.40
2022-11-12T05:04:53.572Z,5.60
2022-11-12T05:07:21.538Z,5.90
2022-11-12T05:09:49.279Z,5.90
2022-11-12T05:12:16.924Z,5.80
2022-11-12T05:14:44.678Z,5.70
2022-11-12T05:17:12.382Z,5.60
2022-11-12T05:19:40.304Z,5.60
2022-11-12T05:22:21.949Z,8.50
2022-11-12T05:24:57.676Z,25.70
2022-11-12T05:27:25.406Z,32.10
2022-11-12T05:29:53.033Z,38.10
2022-11-12T05:32:20.994Z,28.10
2022-11-12T05:34:48.719Z,20.00
2022-11-12T05:37:17.384Z,11.40
2022-11-12T05:39:45.207Z,10.10
2022-11-12T05:42:14.087Z,10.60
2022-11-12T05:44:42.209Z,9.20
2022-11-12T05:47:09.970Z,7.30
2022-11-12T05:49:37.738Z,6.80
2022-11-12T05:52:05.708Z,6.90
2022-11-12T05:54:33.678Z,7.10
2022-11-12T05:57:01.542Z,7.00
2022-11-12T05:59:29.918Z,7.10
2022-11-12T06:01:57.689Z,7.10
2022-11-12T06:04:26.475Z,7.20
2022-11-12T06:06:54.491Z,7.30
2022-11-12T06:09:22.322Z,10.40
2022-11-12T06:11:50.269Z,12.60
2022-11-12T06:14:17.968Z,11.60
2022-11-12T06:16:45.903Z,11.70
2022-11-12T06:19:15.418Z,10.60
2022-11-12T06:21:43.100Z,10.10
2022-11-12T06:24:11.155Z,8.80
2022-11-12T06:26:39.007Z,8.20
2022-11-12T06:29:06.693Z,7.80
2022-11-12T06:31:34.425Z,7.40
2022-11-12T06:34:03.323Z,7.40
2022-11-12T06:36:31.114Z,7.30
2022-11-12T06:38:58.764Z,6.60
2022-11-12T06:41:26.817Z,5.90
2022-11-12T06:43:54.907Z,5.80
2022-11-12T06:46:23.261Z,5.70
2022-11-12T06:48:51.226Z,5.50
2022-11-12T06:51:20.221Z,5.00
2022-11-12T06:53:48.086Z,4.30
2022-11-12T06:56:16.389Z,4.60
2022-11-12T06:58:44.430Z,4.40
2022-11-12T07:01:14.155Z,4.40
2022-11-12T07:03:44.674Z,4.70
2022-11-12T07:06:19.404Z,4.50
2022-11-12T07:08:49.350Z,4.90
2022-11-12T07:11:21.798Z,4.90
2022-11-12T07:13:50.168Z,6.80
2022-11-12T07:16:18.971Z,5.70
2022-11-12T07:18:47.537Z,6.10
2022-11-12T07:21:16.730Z,4.90
2022-11-12T07:23:44.902Z,4.80
2022-11-12T07:26:13.899Z,4.40
2022-11-12T07:28:42.183Z,4.30
2022-11-12T07:31:10.934Z,4.90
2022-11-12T07:33:38.690Z,5.30
2022-11-12T07:36:13.961Z,4.70
2022-11-12T07:38:42.765Z,5.10
2022-11-12T07:41:12.255Z,5.10
2022-11-12T07:43:40.935Z,6.00
2022-11-12T07:46:11.230Z,5.50
2022-11-12T07:48:40.162Z,5.60
2022-11-12T07:51:15.900Z,5.30
2022-11-12T07:53:44.393Z,5.70
2022-11-12T07:56:13.577Z,5.10
2022-11-12T07:58:41.551Z,12.20
2022-11-12T08:01:09.240Z,9.40
2022-11-12T08:03:37.608Z,7.70
2022-11-12T08:06:05.714Z,7.60
2022-11-12T08:08:33.527Z,7.30
2022-11-12T08:11:01.421Z,11.20
2022-11-12T08:13:29.078Z,14.00
2022-11-12T08:15:57.995Z,11.40
2022-11-12T08:18:26.902Z,9.50
2022-11-12T08:21:05.371Z,9.00
2022-11-12T08:23:33.014Z,9.70
2022-11-12T08:26:01.266Z,8.70
2022-11-12T08:28:30.012Z,7.50
2022-11-12T08:30:58.549Z,6.90
2022-11-12T08:33:26.189Z,8.80
2022-11-12T08:35:55.019Z,7.90
2022-11-12T08:38:23.266Z,7.30
2022-11-12T08:40:51.447Z,7.80
2022-11-12T08:43:19.797Z,7.80
2022-11-12T08:45:48.701Z,16.10
2022-11-12T08:48:16.580Z,9.80
2022-11-12T08:50:44.246Z,7.00
2022-11-12T08:53:14.069Z,7.70
2022-11-12T08:55:43.454Z,8.50
2022-11-12T08:58:11.321Z,7.20
2022-11-12T09:00:43.575Z,8.20
2022-11-12T09:03:15.552Z,6.80
2022-11-12T09:05:43.712Z,7.70
2022-11-12T09:08:12.876Z,9.00
2022-11-12T09:10:41.203Z,8.20
2022-11-12T09:13:09.166Z,7.20
2022-11-12T09:15:38.293Z,14.70
2022-11-12T09:18:08.075Z,9.60
2022-11-12T09:20:35.940Z,8.10
2022-11-12T09:23:14.049Z,7.80
2022-11-12T09:25:42.530Z,8.40
2022-11-12T09:28:11.729Z,10.90
2022-11-12T09:30:42.658Z,10.00
2022-11-12T09:33:10.970Z,8.60
2022-11-12T09:35:38.904Z,8.10
2022-11-12T09:38:07.263Z,7.50
2022-11-12T09:40:41.397Z,7.30
2022-11-12T09:43:28.104Z,7.50
2022-11-12T09:46:21.523Z,7.00
2022-11-12T09:48:48.924Z,6.80
2022-11-12T09:51:24.251Z,7.20
2022-11-12T09:53:56.478Z,6.70
2022-11-12T09:56:25.321Z,6.80
2022-11-12T09:58:54.209Z,7.30
2022-11-12T10:01:21.995Z,7.90
2022-11-12T10:04:09.302Z,7.80
2022-11-12T10:06:58.388Z,7.10
2022-11-12T10:09:29.987Z,7.30
2022-11-12T10:12:33.207Z,7.90
2022-11-12T10:15:21.143Z,7.10
2022-11-12T10:17:55.050Z,6.80
2022-11-12T10:20:26.600Z,6.20
2022-11-12T10:23:00.815Z,5.70
2022-11-12T10:25:29.780Z,6.60
2022-11-12T10:27:57.462Z,6.50
2022-11-12T10:30:25.846Z,7.60
2022-11-12T10:32:55.347Z,6.50
2022-11-12T10:35:25.367Z,6.90
2022-11-12T10:37:57.334Z,6.30
2022-11-12T10:40:30.230Z,6.30
2022-11-12T10:43:02.380Z,7.80
2022-11-12T10:45:30.707Z,6.90
2022-11-12T10:47:59.855Z,13.20
2022-11-12T10:50:41.751Z,7.90
2022-11-12T10:53:11.046Z,8.00
2022-11-12T10:55:54.585Z,8.50
2022-11-12T10:58:23.114Z,8.40
2022-11-12T11:01:00.572Z,9.70
2022-11-12T11:03:31.131Z,9.40
2022-11-12T11:06:20.570Z,9.50
2022-11-12T11:08:49.614Z,10.00
2022-11-12T11:11:23.767Z,9.20
2022-11-12T11:13:55.583Z,9.20
2022-11-12T11:16:29.685Z,8.60
2022-11-12T11:19:00.179Z,9.10
2022-11-12T11:21:39.214Z,8.40
2022-11-12T11:24:27.043Z,7.90
2022-11-12T11:27:06.454Z,8.40
2022-11-12T11:29:49.617Z,9.00
2022-11-12T11:32:34.578Z,10.30
2022-11-12T11:35:24.542Z,12.50
2022-11-12T11:37:57.339Z,13.00
2022-11-12T11:40:29.068Z,13.90
2022-11-12T11:43:02.257Z,12.30
2022-11-12T11:45:30.022Z,11.30
2022-11-12T11:48:04.547Z,11.30
2022-11-12T11:50:37.479Z,9.40
2022-11-12T11:53:06.119Z,8.50
2022-11-12T11:55:54.457Z,8.90
2022-11-12T11:58:27.391Z,7.60
2022-11-12T12:01:14.308Z,8.40
2022-11-12T12:03:42.866Z,8.50
2022-11-12T12:06:33.128Z,9.30
2022-11-12T12:09:01.017Z,8.60
2022-11-12T12:11:58.307Z,9.40
2022-11-12T12:14:34.820Z,9.60
2022-11-12T12:17:02.684Z,9.00
2022-11-12T12:19:30.448Z,8.50
2022-11-12T12:22:00.149Z,8.60
2022-11-12T12:24:31.925Z,14.80
2022-11-12T12:27:20.856Z,9.00
2022-11-12T12:29:51.097Z,8.30
2022-11-12T12:32:24.343Z,9.50
2022-11-12T12:34:59.731Z,9.40
2022-11-12T12:37:28.418Z,8.50
2022-11-12T12:40:03.863Z,8.90
2022-11-12T12:42:40.532Z,8.30
2022-11-12T12:45:29.573Z,9.00
2022-11-12T12:48:00.402Z,12.20
2022-11-12T12:50:28.601Z,8.90
2022-11-12T12:52:59.198Z,8.30
2022-11-12T12:55:50.141Z,8.90
2022-11-12T12:58:18.523Z,8.90
2022-11-12T13:00:48.371Z,8.00
2022-11-12T13:03:35.477Z,8.70
2022-11-12T13:08:37.224Z,8.30
2022-11-12T13:11:05.282Z,8.90
2022-11-12T13:13:37.381Z,10.50
2022-11-12T13:16:05.321Z,10.70
2022-11-12T13:18:39.748Z,12.60
2022-11-12T13:21:15.491Z,9.10
2022-11-12T13:24:08.251Z,7.60
2022-11-12T13:26:47.386Z,10.60
2022-11-12T13:29:25.274Z,10.60
2022-11-12T13:32:11.877Z,9.80
2022-11-12T13:34:39.851Z,9.00
2022-11-12T13:37:18.054Z,8.80
2022-11-12T13:39:46.137Z,9.00
2022-11-12T13:42:52.906Z,10.30
2022-11-12T13:45:25.793Z,8.10
2022-11-12T13:47:53.841Z,8.10
2022-11-12T13:50:23.566Z,8.30
2022-11-12T13:52:51.611Z,8.10
2022-11-12T13:55:20.530Z,7.80
2022-11-12T13:57:52.075Z,7.30
2022-11-12T14:00:21.898Z,8.00
2022-11-12T14:02:54.268Z,8.10
2022-11-12T14:05:24.094Z,13.80
2022-11-12T14:08:17.858Z,12.70
2022-11-12T14:10:46.446Z,11.10
2022-11-12T14:13:20.762Z,10.60
2022-11-12T14:16:07.558Z,10.20
2022-11-12T14:18:41.372Z,11.50
2022-11-12T14:21:13.536Z,12.00
2022-11-12T14:23:43.748Z,13.40
2022-11-12T14:26:12.439Z,15.70
2022-11-12T14:28:42.262Z,14.90
2022-11-12T14:31:15.036Z,13.50
2022-11-12T14:33:44.170Z,13.00
2022-11-12T14:36:14.757Z,11.50
2022-11-12T14:38:54.454Z,12.70
2022-11-12T14:41:24.819Z,11.60
2022-11-12T14:44:11.351Z,11.70
2022-11-12T14:46:46.563Z,13.40
2022-11-12T14:49:43.506Z,14.20
2022-11-12T14:52:19.059Z,14.40
2022-11-12T14:54:51.883Z,18.20
2022-11-12T14:57:24.108Z,19.60
2022-11-12T14:59:52.140Z,15.90
2022-11-12T15:02:34.929Z,12.90
2022-11-12T15:05:19.215Z,12.40
2022-11-12T15:07:58.372Z,10.50
2022-11-12T15:10:40.121Z,15.50
2022-11-12T15:13:21.856Z,14.50
2022-11-12T15:15:51.591Z,14.20
2022-11-12T15:18:21.275Z,13.70
2022-11-12T15:21:08.187Z,13.30
2022-11-12T15:23:36.155Z,14.10
2022-11-12T15:26:05.011Z,18.70
2022-11-12T15:28:33.321Z,19.60
2022-11-12T15:31:17.809Z,19.20
2022-11-12T15:33:46.891Z,15.40
2022-11-12T15:36:16.889Z,10.80
2022-11-12T15:38:49.061Z,9.40
2022-11-12T15:41:22.139Z,9.60
2022-11-12T15:43:50.112Z,9.40
2022-11-12T15:46:20.448Z,9.30
2022-11-12T15:48:52.828Z,8.30
2022-11-12T15:51:23.704Z,8.60
2022-11-12T15:53:51.606Z,8.40
2022-11-12T15:56:22.149Z,9.30
2022-11-12T15:58:50.080Z,8.40
2022-11-12T16:01:18.438Z,9.20
2022-11-12T16:03:46.454Z,10.60
2022-11-12T16:06:14.631Z,10.80
2022-11-12T16:08:43.279Z,10.80
2022-11-12T16:11:31.577Z,10.80
2022-11-12T16:13:59.661Z,13.00
2022-11-12T16:16:27.697Z,14.40
2022-11-12T16:18:56.047Z,10.80
2022-11-12T16:21:25.316Z,27.90
2022-11-12T16:23:53.548Z,13.20
2022-11-12T16:26:26.258Z,18.90
2022-11-12T16:28:55.441Z,37.20
2022-11-12T16:31:24.006Z,17.00
2022-11-12T16:33:52.076Z,10.20
2022-11-12T16:36:20.145Z,17.80
2022-11-12T16:38:48.007Z,11.40
2022-11-12T16:41:16.077Z,9.30
2022-11-12T16:43:43.740Z,9.10
2022-11-12T16:46:23.893Z,8.80
2022-11-12T16:48:52.583Z,8.80
2022-11-12T16:51:21.369Z,8.60
2022-11-12T16:53:49.538Z,8.80
2022-11-12T16:56:18.845Z,8.80
2022-11-12T16:58:48.479Z,9.10
2022-11-12T17:01:23.678Z,8.40
2022-11-12T17:03:52.688Z,8.60
2022-11-12T17:06:20.543Z,9.20
2022-11-12T17:08:49.028Z,9.10
2022-11-12T17:11:17.400Z,8.50
2022-11-12T17:13:46.930Z,9.20
2022-11-12T17:16:16.213Z,10.10
2022-11-12T17:18:43.989Z,10.60
2022-11-12T17:21:11.840Z,11.90
2022-11-12T17:23:40.832Z,11.20
2022-11-12T17:26:13.067Z,11.00
2022-11-12T17:28:41.095Z,8.80
2022-11-12T17:31:17.022Z,9.00
2022-11-12T17:33:46.010Z,6.80
2022-11-12T17:36:15.326Z,6.90
2022-11-12T17:38:44.755Z,6.70
2022-11-12T17:41:12.929Z,6.30
2022-11-12T17:43:42.015Z,7.00
2022-11-12T17:46:10.770Z,6.90
2022-11-12T17:48:39.975Z,7.20
2022-11-12T17:51:10.291Z,8.60
2022-11-12T17:53:38.872Z,8.80
2022-11-12T17:56:07.764Z,8.30
2022-11-12T17:58:35.729Z,8.20
2022-11-12T18:01:09.302Z,8.80
2022-11-12T18:03:41.499Z,9.10
2022-11-12T18:06:17.009Z,9.20
2022-11-12T18:08:46.043Z,8.90
2022-11-12T18:11:15.336Z,25.80
2022-11-12T18:13:43.922Z,18.60
2022-11-12T18:16:16.288Z,16.50
2022-11-12T18:18:44.676Z,15.70
2022-11-12T18:21:13.251Z,16.00
2022-11-12T18:23:43.321Z,18.80
2022-11-12T18:26:18.228Z,24.10
2022-11-12T18:28:54.975Z,26.50
2022-11-12T18:31:23.674Z,22.50
2022-11-12T18:33:52.138Z,22.30
2022-11-12T18:36:24.409Z,18.60
2022-11-12T18:38:52.948Z,15.40
2022-11-12T18:41:28.019Z,14.70
2022-11-12T18:43:57.529Z,16.80
2022-11-12T18:46:25.362Z,21.60
2022-11-12T18:48:53.473Z,19.30
2022-11-12T18:51:21.535Z,16.10
2022-11-12T18:53:49.812Z,14.00
2022-11-12T18:56:19.435Z,12.60
2022-11-12T18:58:47.814Z,12.30
2022-11-12T19:01:17.860Z,12.30
2022-11-12T19:03:45.884Z,15.00
2022-11-12T19:06:14.155Z,30.20
2022-11-12T19:08:41.913Z,29.80
2022-11-12T19:11:13.885Z,19.20
2022-11-12T19:13:42.476Z,18.60
2022-11-12T19:16:11.970Z,18.00
2022-11-12T19:18:41.186Z,18.20
2022-11-12T19:21:14.211Z,14.90
2022-11-12T19:23:51.301Z,14.40
2022-11-12T19:26:24.129Z,15.20
2022-11-12T19:28:55.089Z,17.80
2022-11-12T19:31:24.152Z,17.60
2022-11-12T19:33:53.420Z,17.40
2022-11-12T19:36:25.684Z,18.90
2022-11-12T19:39:02.808Z,20.40
2022-11-12T19:41:33.908Z,19.90
2022-11-12T19:44:04.837Z,20.40
2022-11-12T19:46:37.727Z,19.90
2022-11-12T19:49:07.795Z,18.90
2022-11-12T19:51:37.542Z,23.60
2022-11-12T19:54:09.669Z,21.50
2022-11-12T19:56:39.358Z,21.20
2022-11-12T19:59:10.899Z,23.80
2022-11-12T20:01:39.987Z,24.40
2022-11-12T20:04:09.539Z,22.50
2022-11-12T20:06:39.614Z,23.30
2022-11-12T20:09:10.273Z,23.40
2022-11-12T20:11:39.600Z,22.10
2022-11-12T20:14:09.395Z,18.80
2022-11-12T20:16:39.922Z,15.60
2022-11-12T20:19:10.246Z,16.80
2022-11-12T20:21:42.489Z,15.90
2022-11-12T20:24:12.968Z,16.00
2022-11-12T20:26:42.437Z,15.30
2022-11-12T20:29:12.668Z,14.00
2022-11-12T20:31:43.134Z,15.80
2022-11-12T20:34:14.099Z,17.70
2022-11-12T20:36:47.075Z,18.50
2022-11-12T20:39:18.225Z,18.00
2022-11-12T20:41:52.400Z,17.40
2022-11-12T20:44:23.097Z,16.60
2022-11-12T20:46:52.519Z,15.70
2022-11-12T20:49:22.113Z,16.20
2022-11-12T20:51:53.571Z,16.40
2022-11-12T20:54:23.381Z,16.40
2022-11-12T20:56:53.965Z,17.60
2022-11-12T20:59:23.500Z,26.70
2022-11-12T21:01:53.878Z,29.60
2022-11-12T21:04:26.803Z,26.60
2022-11-12T21:07:03.818Z,20.60
2022-11-12T21:09:34.744Z,18.40
2022-11-12T21:12:04.148Z,17.30
2022-11-12T21:14:32.911Z,15.60
2022-11-12T21:17:00.778Z,15.20
2022-11-12T21:19:33.368Z,11.80
2022-11-12T21:22:02.142Z,10.60
2022-11-12T21:24:32.148Z,9.20
2022-11-12T21:27:00.978Z,9.30
2022-11-12T21:29:35.380Z,8.90
2022-11-12T21:32:05.176Z,8.40
2022-11-12T21:34:33.153Z,8.50
2022-11-12T21:37:01.451Z,8.30
2022-11-12T21:39:30.418Z,8.20
2022-11-12T21:41:58.593Z,8.10
2022-11-12T21:44:26.385Z,17.10
2022-11-12T21:46:54.726Z,13.90
2022-11-12T21:49:22.557Z,13.90
2022-11-12T21:51:50.211Z,14.60
2022-11-12T21:54:19.185Z,14.00
2022-11-12T21:56:48.244Z,28.10
2022-11-12T21:59:17.275Z,18.60
2022-11-12T22:01:46.577Z,15.90
2022-11-12T22:04:18.258Z,15.30
2022-11-12T22:06:47.366Z,17.60
2022-11-12T22:09:17.818Z,14.90
2022-11-12T22:11:46.612Z,15.10
2022-11-12T22:14:14.565Z,15.00
2022-11-12T22:16:43.961Z,15.30
2022-11-12T22:19:13.265Z,14.90
2022-11-12T22:21:41.245Z,15.70
2022-11-12T22:24:09.919Z,16.00
2022-11-12T22:26:37.823Z,14.30
2022-11-12T22:29:05.953Z,13.60
2022-11-12T22:31:33.830Z,14.20
2022-11-12T22:34:01.962Z,16.60
2022-11-12T22:36:31.099Z,15.40
2022-11-12T22:38:59.057Z,15.00
2022-11-12T22:41:28.358Z,15.50
2022-11-12T22:43:57.199Z,15.70
2022-11-12T22:46:27.163Z,15.00
2022-11-12T22:48:55.599Z,14.50
2022-11-12T22:51:26.749Z,15.30
2022-11-12T22:53:59.237Z,15.90
2022-11-12T22:56:27.932Z,14.80
2022-11-12T22:58:56.332Z,15.90
2022-11-12T23:01:25.562Z,14.60
2022-11-12T23:03:55.140Z,16.00
2022-11-12T23:06:23.273Z,14.90
2022-11-12T23:08:51.447Z,14.70
2022-11-12T23:11:19.955Z,15.60
2022-11-12T23:13:49.218Z,15.40
2022-11-12T23:16:21.830Z,14.30
2022-11-12T23:18:50.684Z,15.20
2022-11-12T23:21:20.323Z,14.60
2022-11-12T23:23:48.091Z,14.70
2022-11-12T23:26:17.239Z,14.10
2022-11-12T23:28:44.947Z,13.80
2022-11-12T23:31:14.758Z,14.40
2022-11-12T23:33:46.015Z,15.30
2022-11-12T23:36:13.739Z,14.90
2022-11-12T23:38:41.736Z,13.40
2022-11-12T23:41:10.732Z,15.20
2022-11-12T23:43:38.377Z,17.20
2022-11-12T23:46:06.049Z,15.00
2022-11-12T23:48:34.118Z,15.30
2022-11-12T23:51:06.285Z,15.00
2022-11-12T23:53:34.765Z,15.10
2022-11-12T23:56:03.247Z,14.40
2022-11-12T23:58:31.659Z,13.50
